Time;durP1;ratioP1;P1;durP2;ratioP2;P2;SDS_P1;SDS_P2;PMS_P1;PMS_P2;Temp;Humidity;BMP_temperature;BMP_pressure;BME280_temperature;BME280_humidity;BME280_pressure;Samples;Min_cycle;Max_cycle;Signal;HPM_P1;HPM_P2
2022/08/19 00:00:51;;;;;;;17.93;16.10;;;21.20;99.90;;;;;;5032470;28;20449;-68
2022/08/19 00:03:18;;;;;;;17.80;16.20;;;21.30;99.90;;;;;;5032321;28;20459;-68
2022/08/19 00:05:45;;;;;;;18.47;16.80;;;21.30;99.90;;;;;;5031874;28;20519;-68
2022/08/19 00:08:12;;;;;;;18.00;16.20;;;21.20;99.90;;;;;;5032219;28;20821;-68
2022/08/19 00:10:40;;;;;;;17.00;15.33;;;21.20;99.90;;;;;;5032304;28;20955;-68
2022/08/19 00:13:07;;;;;;;19.00;17.10;;;21.20;99.90;;;;;;5032385;28;20456;-68
2022/08/19 00:15:34;;;;;;;16.77;15.07;;;21.20;99.90;;;;;;5032035;28;20444;-68
2022/08/19 00:18:00;;;;;;;18.10;16.33;;;21.20;99.90;;;;;;5032191;28;20486;-68
2022/08/19 00:20:27;;;;;;;16.87;15.17;;;21.20;99.90;;;;;;5032023;28;20441;-68
2022/08/19 00:22:55;;;;;;;17.17;15.47;;;21.20;99.90;;;;;;5032301;28;20441;-67
2022/08/19 00:25:22;;;;;;;17.60;15.90;;;21.20;99.90;;;;;;5031883;28;20508;-68
2022/08/19 00:27:50;;;;;;;18.90;16.83;;;21.20;99.90;;;;;;5031908;28;20480;-68
2022/08/19 00:30:18;;;;;;;18.37;16.67;;;21.20;99.90;;;;;;5032185;28;20479;-67
2022/08/19 00:32:44;;;;;;;17.00;15.27;;;21.10;99.90;;;;;;5032168;28;20449;-68
2022/08/19 00:35:11;;;;;;;18.30;16.50;;;21.20;99.90;;;;;;5031717;28;20442;-68
2022/08/19 00:37:42;;;;;;;16.93;15.33;;;21.10;99.90;;;;;;5032305;28;20475;-68
2022/08/19 00:40:11;;;;;;;17.00;15.27;;;21.10;99.90;;;;;;5032654;28;20464;-68
2022/08/19 00:42:38;;;;;;;16.60;15.00;;;21.20;99.90;;;;;;5032049;28;20524;-68
2022/08/19 00:45:11;;;;;;;15.97;14.40;;;21.10;99.90;;;;;;5031260;28;20445;-68
2022/08/19 00:47:38;;;;;;;17.70;15.90;;;21.10;99.90;;;;;;5031577;28;20998;-68
2022/08/19 00:50:06;;;;;;;16.63;15.03;;;21.10;99.90;;;;;;5031606;28;20449;-67
2022/08/19 00:52:38;;;;;;;17.10;15.50;;;21.10;99.90;;;;;;5031435;28;20456;-68
2022/08/19 00:55:11;;;;;;;18.03;16.40;;;21.10;99.90;;;;;;5031381;28;20474;-68
2022/08/19 00:57:40;;;;;;;16.30;14.77;;;21.20;99.90;;;;;;5031554;28;20469;-68
2022/08/19 01:00:13;;;;;;;16.97;15.33;;;21.20;99.90;;;;;;5031314;28;20448;-68
2022/08/19 01:02:42;;;;;;;18.37;15.87;;;21.20;99.90;;;;;;5031601;28;20445;-68
2022/08/19 01:05:12;;;;;;;17.77;16.00;;;21.20;99.90;;;;;;5031148;28;20441;-68
2022/08/19 01:07:40;;;;;;;17.07;15.37;;;21.20;99.90;;;;;;5031247;28;20473;-68
2022/08/19 01:10:10;;;;;;;17.70;15.17;;;21.20;99.90;;;;;;5031269;28;20459;-68
2022/08/19 01:12:38;;;;;;;17.03;15.43;;;21.10;99.90;;;;;;5031107;28;20449;-69
2022/08/19 01:15:06;;;;;;;18.10;16.13;;;21.10;99.90;;;;;;5031082;28;20448;-68
2022/08/19 01:17:37;;;;;;;18.60;16.80;;;21.10;99.90;;;;;;5031199;28;20473;-68
2022/08/19 01:20:04;;;;;;;18.53;16.73;;;21.10;99.90;;;;;;5031219;28;20445;-69
2022/08/19 01:22:39;;;;;;;17.60;15.80;;;21.10;99.90;;;;;;5031093;28;20449;-67
2022/08/19 01:25:07;;;;;;;16.90;15.20;;;21.10;99.90;;;;;;5030522;28;20444;-68
2022/08/19 01:27:39;;;;;;;17.53;15.87;;;21.10;99.90;;;;;;5030843;28;20477;-68
2022/08/19 01:30:08;;;;;;;18.73;16.73;;;21.10;99.90;;;;;;5030824;28;20951;-69
2022/08/19 01:32:35;;;;;;;17.37;15.67;;;21.10;99.90;;;;;;5030796;28;20459;-68
2022/08/19 01:35:03;;;;;;;17.17;15.40;;;21.00;99.90;;;;;;5030527;28;20457;-69
2022/08/19 01:37:31;;;;;;;17.60;15.80;;;21.00;99.90;;;;;;5030501;28;20556;-68
2022/08/19 01:39:59;;;;;;;18.57;16.50;;;21.00;99.90;;;;;;5030900;28;20452;-68
2022/08/19 01:42:26;;;;;;;17.03;15.27;;;21.00;99.90;;;;;;5030866;28;20441;-68
2022/08/19 01:44:52;;;;;;;18.43;16.60;;;21.00;99.90;;;;;;5030351;28;20444;-68
2022/08/19 01:47:19;;;;;;;17.30;15.60;;;21.00;99.90;;;;;;5030421;28;20485;-68
2022/08/19 01:49:46;;;;;;;18.30;16.50;;;21.00;99.90;;;;;;5030462;28;20445;-68
2022/08/19 01:52:13;;;;;;;18.37;16.53;;;21.00;99.90;;;;;;5030245;28;20456;-68
2022/08/19 01:54:39;;;;;;;18.90;15.93;;;21.00;99.90;;;;;;5030259;28;20452;-68
2022/08/19 01:57:11;;;;;;;17.97;15.77;;;21.00;99.90;;;;;;5029722;28;20468;-68
2022/08/19 01:59:39;;;;;;;18.50;16.70;;;20.90;99.90;;;;;;5030361;28;20456;-69
2022/08/19 02:02:07;;;;;;;20.67;18.53;;;20.90;99.90;;;;;;5030171;28;20979;-68
2022/08/19 02:04:34;;;;;;;20.10;18.00;;;20.90;99.90;;;;;;5029796;28;20455;-68
2022/08/19 02:07:01;;;;;;;18.50;16.70;;;20.90;99.90;;;;;;5030182;28;20492;-68
2022/08/19 02:09:28;;;;;;;20.50;18.30;;;20.80;99.90;;;;;;5030134;28;20445;-68
2022/08/19 02:11:54;;;;;;;22.87;17.70;;;20.80;99.90;;;;;;5030135;28;20909;-68
2022/08/19 02:14:23;;;;;;;21.80;19.57;;;20.80;99.90;;;;;;5030094;28;20476;-66
2022/08/19 02:16:50;;;;;;;19.10;17.00;;;20.80;99.90;;;;;;5029907;28;20476;-68
2022/08/19 02:19:16;;;;;;;19.80;17.70;;;20.80;99.90;;;;;;5029880;28;20444;-68
2022/08/19 02:21:44;;;;;;;22.30;19.97;;;20.80;99.90;;;;;;5030122;28;20444;-68
2022/08/19 02:24:12;;;;;;;19.83;17.77;;;20.80;99.90;;;;;;5029866;28;20472;-68
2022/08/19 02:26:38;;;;;;;19.27;17.37;;;20.80;99.90;;;;;;5029435;28;21014;-68
2022/08/19 02:29:05;;;;;;;19.30;17.40;;;20.70;99.90;;;;;;5030034;28;20459;-69
2022/08/19 02:31:33;;;;;;;19.43;17.53;;;20.70;99.90;;;;;;5029822;28;20455;-67
2022/08/19 02:34:01;;;;;;;19.10;17.13;;;20.70;99.90;;;;;;5029741;28;20448;-68
2022/08/19 02:36:28;;;;;;;20.97;18.73;;;20.70;99.90;;;;;;5029704;28;20437;-68
2022/08/19 02:38:54;;;;;;;22.33;20.17;;;20.70;99.90;;;;;;5029975;28;20775;-68
2022/08/19 02:41:23;;;;;;;20.30;18.07;;;20.70;99.90;;;;;;5029977;28;20498;-68
2022/08/19 02:43:50;;;;;;;21.87;19.57;;;20.60;99.90;;;;;;5029880;28;20449;-68
2022/08/19 02:46:20;;;;;;;23.30;19.87;;;20.60;99.90;;;;;;5029397;28;20480;-68
2022/08/19 02:48:49;;;;;;;23.30;20.97;;;20.60;99.90;;;;;;5030028;28;20456;-68
2022/08/19 02:51:21;;;;;;;21.60;19.40;;;20.60;99.90;;;;;;5030220;28;20453;-68
2022/08/19 02:53:47;;;;;;;24.17;21.57;;;20.60;99.90;;;;;;5030119;28;20452;-67
2022/08/19 02:56:15;;;;;;;23.03;20.63;;;20.50;99.90;;;;;;5029723;28;20816;-68
2022/08/19 02:58:42;;;;;;;24.73;21.90;;;20.50;99.90;;;;;;5029799;28;20449;-68
2022/08/19 03:01:10;;;;;;;24.03;21.57;;;20.40;99.90;;;;;;5029793;28;20981;-68
2022/08/19 03:03:37;;;;;;;23.13;20.07;;;20.40;99.90;;;;;;5029855;28;20449;-68
2022/08/19 03:06:07;;;;;;;24.87;22.27;;;20.40;99.90;;;;;;5029371;28;20481;-68
2022/08/19 03:08:34;;;;;;;24.70;21.87;;;20.40;99.90;;;;;;5030886;28;20524;-69
2022/08/19 03:11:01;;;;;;;23.30;20.93;;;20.30;99.90;;;;;;5033853;28;20441;-68
2022/08/19 03:13:28;;;;;;;24.37;21.53;;;20.30;99.90;;;;;;5033341;28;20448;-68
2022/08/19 03:15:55;;;;;;;24.30;21.80;;;20.30;99.90;;;;;;5033309;28;20816;-68
2022/08/19 03:18:22;;;;;;;24.53;21.90;;;20.30;99.90;;;;;;5033389;28;20472;-68
2022/08/19 03:20:52;;;;;;;25.53;22.93;;;20.20;99.90;;;;;;5033285;28;20942;-68
2022/08/19 03:23:21;;;;;;;23.33;20.97;;;20.30;99.90;;;;;;5033297;28;20543;-68
2022/08/19 03:25:50;;;;;;;24.43;21.77;;;20.30;99.90;;;;;;5032827;28;20463;-68
2022/08/19 03:28:17;;;;;;;24.80;22.33;;;20.20;99.90;;;;;;5033535;28;20472;-68
2022/08/19 03:30:56;;;;;;;23.37;21.07;;;20.30;99.90;;;;;;5033324;28;20854;-68
2022/08/19 03:33:23;;;;;;;26.47;23.77;;;20.30;99.90;;;;;;5033251;28;20490;-68
2022/08/19 03:36:01;;;;;;;25.37;22.77;;;20.30;99.90;;;;;;5032794;28;20453;-68
2022/08/19 03:38:30;;;;;;;26.20;23.43;;;20.30;99.90;;;;;;5032885;28;20488;-68
2022/08/19 03:40:57;;;;;;;27.37;23.37;;;20.20;99.90;;;;;;5033133;28;20444;-67
2022/08/19 03:43:24;;;;;;;26.10;23.40;;;20.20;99.90;;;;;;5032966;28;20457;-68
2022/08/19 03:46:02;;;;;;;28.17;25.37;;;20.20;99.90;;;;;;5032564;28;20449;-68
2022/08/19 03:48:29;;;;;;;27.37;24.47;;;20.20;99.90;;;;;;5033032;28;20475;-68
2022/08/19 03:50:58;;;;;;;28.40;25.47;;;20.20;99.90;;;;;;5032636;28;20457;-66
2022/08/19 03:53:26;;;;;;;27.20;24.50;;;20.20;99.90;;;;;;5032866;28;20463;-68
2022/08/19 03:55:54;;;;;;;25.43;22.80;;;20.20;99.90;;;;;;5032452;28;20449;-68
2022/08/19 03:58:22;;;;;;;27.43;24.00;;;20.20;99.90;;;;;;5032603;28;20468;-68
2022/08/19 04:00:49;;;;;;;28.30;25.30;;;20.10;99.90;;;;;;5032758;28;20451;-68
2022/08/19 04:03:18;;;;;;;26.80;24.00;;;20.10;99.90;;;;;;5032613;28;20464;-68
2022/08/19 04:05:45;;;;;;;29.63;26.63;;;20.10;99.90;;;;;;5032523;28;20452;-68
2022/08/19 04:08:12;;;;;;;26.73;23.00;;;20.10;99.90;;;;;;5032798;28;20488;-69
2022/08/19 04:10:40;;;;;;;25.87;23.27;;;20.10;99.90;;;;;;5033028;28;20448;-68
2022/08/19 04:13:08;;;;;;;26.10;23.40;;;20.00;99.90;;;;;;5032930;28;20453;-69
2022/08/19 04:15:41;;;;;;;26.80;22.83;;;20.10;99.90;;;;;;5032031;28;20463;-68
2022/08/19 04:18:08;;;;;;;25.30;22.70;;;20.10;99.90;;;;;;5031948;28;20472;-68
2022/08/19 04:20:40;;;;;;;26.50;23.53;;;20.10;99.90;;;;;;5031263;28;21053;-68
2022/08/19 04:23:07;;;;;;;26.37;23.67;;;20.10;99.90;;;;;;5032292;28;20445;-67
2022/08/19 04:25:37;;;;;;;26.90;24.27;;;20.10;99.90;;;;;;5031797;28;20441;-68
2022/08/19 04:28:04;;;;;;;27.13;24.40;;;20.10;99.90;;;;;;5031902;28;20489;-68
2022/08/19 04:30:38;;;;;;;26.90;24.10;;;20.10;99.90;;;;;;5031884;28;20457;-68
2022/08/19 04:33:05;;;;;;;29.23;26.00;;;20.10;99.90;;;;;;5032188;28;20448;-68
2022/08/19 04:35:37;;;;;;;26.40;23.73;;;20.10;99.90;;;;;;5031791;28;20459;-68
2022/08/19 04:38:03;;;;;;;28.80;25.70;;;20.00;99.90;;;;;;5031715;28;20491;-68
2022/08/19 04:43:15;;;;;;;28.13;25.13;;;20.00;99.90;;;;;;5031904;28;20423;-68
2022/08/19 04:45:44;;;;;;;27.60;24.97;;;20.10;99.90;;;;;;5031639;28;20445;-68
2022/08/19 04:48:11;;;;;;;29.47;26.47;;;20.10;99.90;;;;;;5031499;28;20554;-68
2022/08/19 04:50:42;;;;;;;29.10;26.10;;;20.00;99.90;;;;;;5031675;28;20449;-69
2022/08/19 04:53:09;;;;;;;28.47;25.53;;;20.00;99.90;;;;;;5031713;28;20882;-68
2022/08/19 04:55:40;;;;;;;30.33;27.20;;;20.00;99.90;;;;;;5031084;28;20457;-68
2022/08/19 04:58:07;;;;;;;28.97;25.97;;;20.00;99.90;;;;;;5031672;28;20465;-68
2022/08/19 05:00:34;;;;;;;29.17;26.10;;;20.00;99.90;;;;;;5031777;28;20838;-68
2022/08/19 05:03:02;;;;;;;27.67;24.90;;;20.00;99.90;;;;;;5031521;28;20969;-68
2022/08/19 05:05:31;;;;;;;28.50;25.33;;;20.00;99.90;;;;;;5031399;28;20448;-68
2022/08/19 05:07:58;;;;;;;30.73;27.53;;;20.00;99.90;;;;;;5031520;28;20574;-68
2022/08/19 05:10:24;;;;;;;29.67;26.60;;;20.00;99.90;;;;;;5031861;28;20455;-68
2022/08/19 05:12:51;;;;;;;27.00;24.40;;;20.10;99.90;;;;;;5031513;28;20970;-68
2022/08/19 05:15:18;;;;;;;28.70;25.60;;;20.10;99.90;;;;;;5031082;28;20453;-68
2022/08/19 05:22:31;;;;;;;28.60;25.50;;;20.00;99.90;;;;;;5031340;28;20465;-68
2022/08/19 05:23:17;;;;;;;30.17;26.87;;;20.00;99.90;;;;;;5031023;28;20611;-69
2022/08/19 05:25:44;;;;;;;26.33;23.53;;;20.10;99.90;;;;;;5030667;28;20449;-68
2022/08/19 05:28:11;;;;;;;27.83;24.97;;;20.10;99.90;;;;;;5030720;28;20496;-68
2022/08/19 05:30:38;;;;;;;28.53;25.60;;;20.10;99.90;;;;;;5030891;28;20449;-68
2022/08/19 05:33:04;;;;;;;27.60;24.60;;;20.20;99.90;;;;;;5028443;28;20457;-68
2022/08/19 05:35:33;;;;;;;28.67;25.57;;;20.20;99.90;;;;;;5030594;28;20453;-68
2022/08/19 05:37:59;;;;;;;28.97;26.00;;;20.20;99.90;;;;;;5029747;28;20534;-68
2022/08/19 05:40:26;;;;;;;28.23;25.23;;;20.20;99.90;;;;;;5030975;28;20951;-68
2022/08/19 05:42:53;;;;;;;27.43;24.50;;;20.20;99.90;;;;;;5029826;28;20441;-69
2022/08/19 05:45:21;;;;;;;28.27;25.37;;;20.20;99.90;;;;;;5030044;28;20444;-68
2022/08/19 05:47:48;;;;;;;31.83;28.53;;;20.20;99.90;;;;;;5030182;28;20520;-68
2022/08/19 05:50:17;;;;;;;27.17;24.10;;;20.20;99.90;;;;;;5030391;28;20457;-68
2022/08/19 05:52:45;;;;;;;28.23;25.50;;;20.20;99.90;;;;;;5030540;28;20476;-69
2022/08/19 05:55:12;;;;;;;30.57;26.40;;;20.20;99.90;;;;;;5030118;28;20444;-68
2022/08/19 05:57:39;;;;;;;28.13;25.10;;;20.20;99.90;;;;;;5030444;28;20465;-68
2022/08/19 06:00:09;;;;;;;32.80;26.87;;;20.20;99.90;;;;;;5030085;28;20452;-68
2022/08/19 06:02:36;;;;;;;29.13;25.70;;;20.20;99.90;;;;;;5030369;28;20449;-68
2022/08/19 06:05:05;;;;;;;30.00;26.83;;;20.20;99.90;;;;;;5030015;28;20445;-67
2022/08/19 06:07:32;;;;;;;28.60;25.60;;;20.20;99.90;;;;;;5030101;28;20587;-68
2022/08/19 06:10:00;;;;;;;30.60;27.10;;;20.30;99.90;;;;;;5030188;28;20452;-67
2022/08/19 06:12:32;;;;;;;29.23;26.37;;;20.30;99.90;;;;;;5029991;28;20445;-68
2022/08/19 06:14:59;;;;;;;28.63;25.70;;;20.30;99.90;;;;;;5029738;28;20444;-68
2022/08/19 06:17:26;;;;;;;31.13;25.10;;;20.30;99.90;;;;;;5029900;28;20468;-68
2022/08/19 06:19:53;;;;;;;29.03;26.10;;;20.30;99.90;;;;;;5030131;28;20552;-69
2022/08/19 06:22:20;;;;;;;29.33;24.03;;;20.30;99.90;;;;;;5030621;28;20464;-69
2022/08/19 06:24:47;;;;;;;29.57;26.47;;;20.40;99.90;;;;;;5030222;28;20868;-67
2022/08/19 06:27:15;;;;;;;33.00;26.47;;;20.30;99.90;;;;;;5029298;28;20514;-68
2022/08/19 06:29:43;;;;;;;26.23;23.73;;;20.30;99.90;;;;;;5029804;28;20444;-68
2022/08/19 06:32:10;;;;;;;29.87;26.70;;;20.30;99.90;;;;;;5029947;28;20455;-66
2022/08/19 06:34:37;;;;;;;27.50;24.43;;;20.20;99.90;;;;;;5029620;28;20502;-68
2022/08/19 06:37:05;;;;;;;28.57;25.77;;;20.20;99.90;;;;;;5029633;28;20551;-68
2022/08/19 06:39:35;;;;;;;32.73;25.20;;;20.10;99.90;;;;;;5029545;28;20475;-68
2022/08/19 06:42:06;;;;;;;28.57;25.67;;;20.10;99.90;;;;;;5029691;28;20449;-68
2022/08/19 06:44:36;;;;;;;27.53;24.83;;;20.00;99.90;;;;;;5029028;28;20528;-68
2022/08/19 06:47:04;;;;;;;29.27;25.77;;;19.90;99.90;;;;;;5029413;28;20477;-68
2022/08/19 06:49:32;;;;;;;30.87;27.77;;;20.00;99.90;;;;;;5029543;28;20448;-68
2022/08/19 06:51:59;;;;;;;28.47;25.47;;;20.00;99.90;;;;;;5029546;28;20955;-68
2022/08/19 06:54:26;;;;;;;29.63;26.40;;;20.10;99.90;;;;;;5029264;28;20854;-66
2022/08/19 06:56:53;;;;;;;27.87;25.17;;;20.10;99.90;;;;;;5029601;28;20500;-68
2022/08/19 06:59:25;;;;;;;30.30;26.97;;;20.10;99.90;;;;;;5029599;28;20449;-68
2022/08/19 07:01:56;;;;;;;27.87;25.07;;;20.10;99.90;;;;;;5029608;28;20881;-69
2022/08/19 07:04:25;;;;;;;29.20;26.37;;;20.10;99.90;;;;;;5029332;28;20943;-69
2022/08/19 07:06:58;;;;;;;29.00;25.90;;;20.10;99.90;;;;;;5028748;28;20473;-68
2022/08/19 07:09:25;;;;;;;28.83;25.83;;;20.20;99.90;;;;;;5029567;28;20856;-69
2022/08/19 07:11:53;;;;;;;29.63;26.33;;;20.30;99.90;;;;;;5029441;28;20440;-69
2022/08/19 07:14:27;;;;;;;30.93;27.67;;;20.30;99.90;;;;;;5029612;28;20457;-69
2022/08/19 07:16:57;;;;;;;29.00;26.00;;;20.40;99.90;;;;;;5029279;28;20460;-68
2022/08/19 07:19:27;;;;;;;28.17;25.40;;;20.50;99.90;;;;;;5029246;28;20970;-68
2022/08/19 07:21:54;;;;;;;26.40;23.80;;;20.60;99.90;;;;;;5029452;28;20477;-68
2022/08/19 07:24:23;;;;;;;27.80;25.00;;;20.70;99.90;;;;;;5029754;28;20443;-68
2022/08/19 07:26:51;;;;;;;27.97;23.90;;;20.70;99.90;;;;;;5029614;28;20597;-68
2022/08/19 07:29:22;;;;;;;27.60;23.07;;;20.70;99.90;;;;;;5029558;28;20488;-68
2022/08/19 07:31:50;;;;;;;28.03;25.10;;;20.70;99.90;;;;;;5029589;28;20486;-68
2022/08/19 07:34:19;;;;;;;27.10;24.40;;;20.70;99.90;;;;;;5029514;28;20449;-68
2022/08/19 07:36:46;;;;;;;25.53;22.90;;;20.70;99.90;;;;;;5028979;28;21013;-68
2022/08/19 07:39:16;;;;;;;26.23;23.53;;;20.70;99.90;;;;;;5029386;28;20973;-68
2022/08/19 07:41:43;;;;;;;24.60;22.20;;;20.80;99.90;;;;;;5029349;28;20467;-68
2022/08/19 07:44:12;;;;;;;25.60;22.97;;;20.70;99.90;;;;;;5029088;28;20457;-68
2022/08/19 07:46:42;;;;;;;24.80;22.33;;;20.70;99.90;;;;;;5028815;28;20559;-68
2022/08/19 07:49:17;;;;;;;24.20;21.90;;;20.70;99.90;;;;;;5028972;28;20484;-68
2022/08/19 07:51:46;;;;;;;24.83;22.20;;;20.70;99.90;;;;;;5029225;28;21017;-68
2022/08/19 07:54:13;;;;;;;26.60;23.73;;;20.50;99.90;;;;;;5029012;28;20938;-70
2022/08/19 07:56:40;;;;;;;26.57;23.77;;;20.40;99.90;;;;;;5030987;28;20465;-68
2022/08/19 07:59:07;;;;;;;26.87;23.87;;;20.40;99.90;;;;;;5032678;28;20481;-68
2022/08/19 08:01:34;;;;;;;27.20;24.30;;;20.30;99.90;;;;;;5032286;28;20449;-68
2022/08/19 08:09:33;;;;;;;27.33;24.33;;;19.90;99.90;;;;;;5032602;28;20507;-68
2022/08/19 08:12:05;;;;;;;24.93;22.33;;;19.80;99.90;;;;;;5032415;28;20468;-69
2022/08/19 08:14:35;;;;;;;27.20;24.40;;;19.80;99.90;;;;;;5031937;28;20449;-67
2022/08/19 08:17:02;;;;;;;27.60;24.90;;;19.70;99.90;;;;;;5032136;28;20531;-68
2022/08/19 08:19:30;;;;;;;26.10;23.30;;;19.70;99.90;;;;;;5032134;28;20447;-68
2022/08/19 08:22:00;;;;;;;27.83;24.83;;;19.60;99.90;;;;;;5032017;28;20970;-69
2022/08/19 08:24:30;;;;;;;28.43;25.47;;;19.70;99.90;;;;;;5031947;28;20441;-68
2022/08/19 08:26:58;;;;;;;27.07;24.33;;;19.60;99.90;;;;;;5031882;28;20477;-67
2022/08/19 08:29:25;;;;;;;27.97;25.13;;;19.50;99.90;;;;;;5031773;28;20511;-68
2022/08/19 08:31:53;;;;;;;29.33;26.17;;;19.40;99.90;;;;;;5031890;28;20445;-68
2022/08/19 08:34:20;;;;;;;29.87;26.77;;;19.40;99.90;;;;;;5031774;28;20455;-68
2022/08/19 08:36:48;;;;;;;28.77;25.67;;;19.40;99.90;;;;;;5031582;28;20479;-68
2022/08/19 08:39:18;;;;;;;31.53;27.30;;;19.40;99.90;;;;;;5031735;28;20822;-67
2022/08/19 08:41:52;;;;;;;29.77;26.50;;;19.40;99.90;;;;;;5031664;28;20456;-68
2022/08/19 08:44:23;;;;;;;28.63;25.50;;;19.50;99.90;;;;;;5031602;28;20451;-69
2022/08/19 08:46:54;;;;;;;31.47;28.27;;;19.50;99.90;;;;;;5031325;28;20854;-68
2022/08/19 08:49:30;;;;;;;28.17;25.27;;;19.60;99.90;;;;;;5031589;28;20484;-68
2022/08/19 08:52:02;;;;;;;31.80;26.90;;;19.90;99.90;;;;;;5031519;28;20499;-68
2022/08/19 08:54:36;;;;;;;26.20;23.60;;;20.10;99.90;;;;;;5031280;28;20443;-68
2022/08/19 08:57:07;;;;;;;31.57;22.80;;;20.30;99.90;;;;;;5031160;28;21008;-68
2022/08/19 08:59:38;;;;;;;24.87;22.20;;;20.70;99.90;;;;;;5031322;28;20934;-68
2022/08/19 09:02:05;;;;;;;24.30;21.27;;;21.00;99.90;;;;;;5031942;28;20456;-68
2022/08/19 09:04:32;;;;;;;22.80;20.60;;;21.30;99.90;;;;;;5031032;28;20460;-68
2022/08/19 09:07:09;;;;;;;22.03;19.60;;;21.50;99.90;;;;;;5031123;28;20491;-67
2022/08/19 09:09:41;;;;;;;23.73;21.40;;;21.60;99.90;;;;;;5031101;28;20489;-69
2022/08/19 09:12:14;;;;;;;23.30;21.13;;;21.60;99.90;;;;;;5031516;28;20467;-68
2022/08/19 09:14:53;;;;;;;22.63;20.43;;;21.60;99.90;;;;;;5031040;28;20902;-69
2022/08/19 09:17:27;;;;;;;22.87;20.40;;;21.70;99.90;;;;;;5031083;28;20554;-69
2022/08/19 09:19:56;;;;;;;20.50;18.53;;;21.70;99.90;;;;;;5031123;28;20441;-68
2022/08/19 09:22:24;;;;;;;23.17;19.63;;;21.70;99.90;;;;;;5031363;28;21029;-69
2022/08/19 09:24:53;;;;;;;24.87;22.17;;;21.70;99.90;;;;;;5031110;28;20556;-68
2022/08/19 09:27:20;;;;;;;23.70;19.63;;;21.60;99.90;;;;;;5030858;28;20476;-69
2022/08/19 09:29:48;;;;;;;23.37;20.97;;;21.60;99.90;;;;;;5031164;28;21045;-68
2022/08/19 09:32:15;;;;;;;22.87;20.57;;;21.70;99.90;;;;;;5030898;28;20449;-68
2022/08/19 09:34:43;;;;;;;21.53;19.23;;;21.70;99.90;;;;;;5030815;28;20445;-68
2022/08/19 09:37:10;;;;;;;21.70;19.40;;;21.70;99.90;;;;;;5031166;28;20473;-68
2022/08/19 09:39:38;;;;;;;23.57;17.70;;;21.80;99.90;;;;;;5031247;28;20452;-68
2022/08/19 09:42:11;;;;;;;20.63;18.63;;;21.80;99.90;;;;;;5031026;28;20968;-68
2022/08/19 09:44:38;;;;;;;20.70;18.60;;;21.70;99.90;;;;;;5030876;28;20445;-68
2022/08/19 09:47:05;;;;;;;23.33;19.90;;;21.80;99.90;;;;;;5030764;28;20480;-68
2022/08/19 09:49:32;;;;;;;19.23;17.20;;;21.80;99.90;;;;;;5030742;28;21045;-68
2022/08/19 09:51:59;;;;;;;21.40;19.13;;;21.80;99.90;;;;;;5030965;28;20457;-67
2022/08/19 09:54:26;;;;;;;20.60;17.83;;;21.80;99.90;;;;;;5030712;28;20457;-68
2022/08/19 09:56:53;;;;;;;20.23;18.43;;;21.80;99.90;;;;;;5030491;28;20987;-68
2022/08/19 09:59:22;;;;;;;20.33;18.30;;;21.80;99.90;;;;;;5030399;28;20460;-68
2022/08/19 10:01:49;;;;;;;19.00;16.90;;;21.80;99.90;;;;;;5030272;28;20453;-68
2022/08/19 10:04:16;;;;;;;19.90;16.70;;;21.80;99.90;;;;;;5030408;28;20460;-68
2022/08/19 10:06:43;;;;;;;17.93;16.23;;;21.90;99.90;;;;;;5029845;28;20475;-68
2022/08/19 10:09:10;;;;;;;17.33;15.80;;;21.90;99.90;;;;;;5030221;28;20488;-68
2022/08/19 10:11:40;;;;;;;19.50;16.77;;;22.00;99.90;;;;;;5030215;28;20475;-68
2022/08/19 10:14:07;;;;;;;18.83;16.93;;;22.10;99.90;;;;;;5029930;28;20488;-69
2022/08/19 10:16:38;;;;;;;17.93;15.70;;;22.20;99.90;;;;;;5029551;28;20479;-68
2022/08/19 10:19:05;;;;;;;17.37;15.60;;;22.30;99.90;;;;;;5029490;28;20939;-68
2022/08/19 10:21:35;;;;;;;16.27;14.73;;;22.40;99.90;;;;;;5029983;28;20935;-68
2022/08/19 10:24:05;;;;;;;19.07;16.43;;;22.50;99.90;;;;;;5030115;28;20499;-68
2022/08/19 10:26:34;;;;;;;17.10;15.43;;;22.50;99.90;;;;;;5029590;28;20527;-68
2022/08/19 10:29:01;;;;;;;17.60;15.60;;;22.60;99.90;;;;;;5029754;28;20484;-68
2022/08/19 10:31:31;;;;;;;17.70;15.50;;;22.60;99.90;;;;;;5030017;28;20552;-68
2022/08/19 10:34:02;;;;;;;17.30;15.60;;;22.60;99.90;;;;;;5030048;28;20829;-68
2022/08/19 10:36:31;;;;;;;17.87;16.27;;;22.60;99.90;;;;;;5029574;28;20445;-68
2022/08/19 10:39:01;;;;;;;16.87;15.27;;;22.60;99.90;;;;;;5029769;28;20445;-68
2022/08/19 10:41:32;;;;;;;17.60;15.97;;;22.60;99.90;;;;;;5029658;28;20463;-68
2022/08/19 10:44:01;;;;;;;19.10;14.43;;;22.70;99.90;;;;;;5029865;28;20528;-67
2022/08/19 10:46:31;;;;;;;14.67;13.30;;;22.60;99.90;;;;;;5029403;28;20635;-67
2022/08/19 10:49:00;;;;;;;15.20;13.60;;;22.50;99.90;;;;;;5029443;28;21077;-68
2022/08/19 10:54:12;;;;;;;19.80;13.73;;;22.30;99.90;;;;;;5029772;28;20432;-67
2022/08/19 10:56:53;;;;;;;20.30;12.97;;;22.40;99.90;;;;;;5029506;28;20469;-68
2022/08/19 10:59:21;;;;;;;21.73;12.50;;;22.40;99.90;;;;;;5029801;28;20437;-68
2022/08/19 11:01:50;;;;;;;12.50;11.17;;;22.50;99.90;;;;;;5029575;28;20444;-67
2022/08/19 11:04:19;;;;;;;15.73;12.30;;;22.60;99.90;;;;;;5029221;28;20951;-69
2022/08/19 11:06:47;;;;;;;12.77;11.43;;;22.70;99.90;;;;;;5028948;28;20986;-68
2022/08/19 11:09:15;;;;;;;12.00;10.90;;;22.90;99.90;;;;;;5029208;28;20488;-68
2022/08/19 11:11:42;;;;;;;12.20;11.00;;;23.20;99.90;;;;;;5029469;28;20551;-68
2022/08/19 11:14:10;;;;;;;11.23;10.03;;;23.40;99.90;;;;;;5029269;28;20455;-67
2022/08/19 11:16:38;;;;;;;10.67;9.63;;;23.60;99.90;;;;;;5028857;28;20880;-68
2022/08/19 11:19:06;;;;;;;13.40;9.00;;;23.80;99.90;;;;;;5030044;28;21065;-68
2022/08/19 11:21:36;;;;;;;10.53;9.33;;;23.90;99.90;;;;;;5032051;28;20457;-68
2022/08/19 11:24:07;;;;;;;12.37;9.67;;;24.20;99.90;;;;;;5029519;28;20821;-68
2022/08/19 11:26:34;;;;;;;10.07;9.10;;;24.20;99.90;;;;;;5028926;28;20485;-68
2022/08/19 11:29:01;;;;;;;10.03;9.07;;;24.20;99.90;;;;;;5029634;28;20862;-69
2022/08/19 11:31:33;;;;;;;11.73;9.50;;;24.30;99.90;;;;;;5032996;28;20457;-69
2022/08/19 11:34:03;;;;;;;11.27;10.27;;;24.40;99.90;;;;;;5033212;28;20448;-68
2022/08/19 11:36:32;;;;;;;10.50;9.20;;;24.20;99.90;;;;;;5032904;28;20459;-68
2022/08/19 11:39:00;;;;;;;10.60;9.60;;;24.00;99.90;;;;;;5033200;28;20445;-67
2022/08/19 11:41:28;;;;;;;10.97;9.80;;;23.90;99.90;;;;;;5032980;28;20445;-68
2022/08/19 11:43:55;;;;;;;11.43;9.30;;;23.80;99.90;;;;;;5032895;28;20444;-68
2022/08/19 11:46:24;;;;;;;11.77;10.10;;;23.80;99.90;;;;;;5032743;28;20455;-69
2022/08/19 11:48:51;;;;;;;16.63;10.27;;;23.70;99.90;;;;;;5032878;28;20480;-69
2022/08/19 11:51:21;;;;;;;14.27;10.03;;;23.70;99.90;;;;;;5033080;28;20464;-67
2022/08/19 11:53:49;;;;;;;13.70;10.63;;;23.50;99.90;;;;;;5033076;28;20470;-67
2022/08/19 11:56:18;;;;;;;12.20;10.90;;;23.10;99.90;;;;;;5032558;28;20480;-69
2022/08/19 11:58:45;;;;;;;13.57;12.37;;;22.70;99.90;;;;;;5033290;28;20451;-68
2022/08/19 12:01:15;;;;;;;16.23;12.03;;;22.50;99.90;;;;;;5032880;28;20451;-68
2022/08/19 12:03:43;;;;;;;12.73;11.47;;;22.30;99.90;;;;;;5032735;28;20488;-68
2022/08/19 12:06:13;;;;;;;12.47;11.37;;;22.30;99.90;;;;;;5032434;28;20444;-68
2022/08/19 12:08:41;;;;;;;12.10;10.67;;;22.30;99.90;;;;;;5032487;28;20444;-68
2022/08/19 12:11:07;;;;;;;12.87;11.60;;;22.40;99.90;;;;;;5032570;28;20528;-68
2022/08/19 12:13:36;;;;;;;13.97;11.13;;;22.40;99.90;;;;;;5032349;28;21215;-68
2022/08/19 12:16:09;;;;;;;12.43;11.13;;;22.50;99.90;;;;;;5032015;28;20444;-68
2022/08/19 12:18:36;;;;;;;13.50;12.17;;;22.60;99.90;;;;;;5032350;28;20503;-69
2022/08/19 12:21:03;;;;;;;14.13;11.77;;;22.70;99.90;;;;;;5032211;28;20460;-66
2022/08/19 12:23:30;;;;;;;11.43;10.33;;;22.80;99.90;;;;;;5032049;28;20511;-69
2022/08/19 12:25:57;;;;;;;13.40;12.10;;;22.90;99.90;;;;;;5031814;28;20468;-68
2022/08/19 12:28:25;;;;;;;11.40;10.30;;;23.20;99.90;;;;;;5032214;28;20464;-68
2022/08/19 12:30:53;;;;;;;13.37;12.00;;;23.40;99.90;;;;;;5032063;28;20492;-69
2022/08/19 12:33:25;;;;;;;11.83;10.70;;;23.70;99.90;;;;;;5031997;28;20444;-69
2022/08/19 12:35:52;;;;;;;10.43;9.43;;;24.00;99.90;;;;;;5031550;28;20943;-69
2022/08/19 12:38:20;;;;;;;12.60;11.40;;;24.30;99.90;;;;;;5032034;28;20471;-69
2022/08/19 12:40:47;;;;;;;10.70;9.80;;;24.60;99.90;;;;;;5031305;28;20449;-69
2022/08/19 12:43:15;;;;;;;11.30;10.20;;;24.80;99.90;;;;;;5031899;28;20453;-68
2022/08/19 12:45:43;;;;;;;10.50;9.50;;;25.00;99.90;;;;;;5031545;28;20484;-69
2022/08/19 12:48:12;;;;;;;10.90;9.90;;;25.10;99.90;;;;;;5031656;28;20512;-69